CST,Max TemperatureF,Mean TemperatureF,Min TemperatureF,Max Dew PointF,MeanDew PointF,Min DewpointF,Max Humidity, Mean Humidity, Min Humidity, Max Sea Level PressureIn, Mean Sea Level PressureIn, Min Sea Level PressureIn, Max VisibilityMiles, Mean VisibilityMiles, Min VisibilityMiles, Max Wind SpeedMPH, Mean Wind SpeedMPH, Max Gust SpeedMPH,PrecipitationIn, CloudCover, Events, WindDirDegrees
2012-12-1,84,76,68,67,65,61,93,70,47,30.14,30.09,30.01,10,10,7,21,11,24,0.00,5,,180
2012-12-2,82,73,64,66,64,58,100,72,43,30.18,30.12,30.05,10,7,1,16,9,21,0.00,5,,170
2012-12-3,82,74,65,66,64,58,100,73,46,30.09,30.04,29.96,10,9,2,18,10,24,T,5,Rain,179
2012-12-4,74,67,60,70,63,41,93,73,53,30.18,30.10,30.02,10,10,8,14,7,18,0.03,6,Rain-Thunderstorm,235
2012-12-5,73,62,50,57,48,36,93,70,47,30.23,30.14,30.06,10,9,1,13,7,32,0.00,3,,22
2012-12-6,73,65,57,61,57,52,100,73,46,30.06,29.97,29.85,10,7,1,16,7,25,0.00,6,,154
2012-12-7,79,71,62,64,62,59,100,76,52,29.92,29.86,29.79,10,8,0,14,6,17,0.00,5,Fog,178
2012-12-8,82,72,62,67,64,61,100,76,51,29.92,29.86,29.78,10,7,0,16,7,21,0.00,5,Fog,177
2012-12-9,80,67,54,67,61,51,93,76,58,29.92,29.85,29.77,10,8,1,24,10,30,1.85,7,Rain-Thunderstorm,239
2012-12-10,54,45,36,50,28,18,89,63,36,30.14,30.06,29.92,10,10,10,28,13,39,0.02,3,,336
2012-12-11,55,43,30,28,22,15,70,46,22,30.23,30.17,30.12,10,10,10,12,4,18,0.00,0,,7
2012-12-12,60,45,30,30,25,21,75,49,23,30.35,30.28,30.23,10,10,10,9,3,16,0.00,0,,97
2012-12-13,66,50,34,36,27,20,64,43,22,30.34,30.27,30.21,10,10,10,13,5,22,0.00,1,,128
2012-12-14,71,60,48,64,51,36,87,72,56,30.21,30.04,29.90,10,10,10,20,10,26,T,7,,131
2012-12-15,75,68,60,66,59,48,100,71,41,29.96,29.90,29.85,10,10,9,15,3,25,0.04,6,Rain,253
2012-12-16,68,60,51,64,58,50,96,85,73,29.86,29.82,29.76,10,9,1,32,3,40,1.24,5,Rain-Thunderstorm,285
2012-12-17,68,57,45,49,38,32,96,61,26,29.94,29.88,29.83,10,10,9,18,6,25,0.00,0,,268
2012-12-18,80,63,46,58,45,35,84,56,28,29.93,29.87,29.81,10,10,10,17,8,23,0.00,0,,179
2012-12-19,82,72,61,68,65,58,100,78,55,29.84,29.76,29.66,10,10,7,26,15,33,T,6,,177
2012-12-20,74,54,33,70,22,8,84,50,15,30.46,30.21,29.79,10,10,6,36,17,46,0.01,2,Rain,321
2012-12-21,62,46,30,27,19,11,64,39,14,30.52,30.43,30.37,10,10,10,8,2,20,0.00,0,,220
2012-12-22,70,53,35,52,38,24,70,54,38,30.37,30.25,30.10,10,10,10,23,7,28,0.00,3,,171
2012-12-23,75,67,59,59,56,53,93,73,53,30.08,29.96,29.88,10,10,10,23,9,35,0.00,1,,197
2012-12-24,67,56,44,53,37,29,93,59,24,30.02,29.88,29.76,10,10,10,10,5,21,0.00,1,,9
2012-12-25,72,53,33,66,44,22,93,69,44,30.10,29.72,29.49,10,9,6,38,19,54,0.02,6,Rain,313
2012-12-26,43,36,29,25,21,19,69,56,43,30.29,30.19,30.12,10,10,10,26,10,36,0.00,3,,336
2012-12-27,47,39,30,46,38,24,93,79,65,30.13,30.01,29.90,10,6,1,13,5,14,0.25,6,Rain,89
2012-12-28,52,44,36,48,43,29,100,83,66,30.21,29.99,29.88,10,7,0,23,12,30,0.02,7,Fog-Rain,339
2012-12-29,51,40,29,28,23,21,78,55,32,30.46,30.38,30.21,10,10,10,18,7,26,0.00,0,,344
2012-12-30,49,40,30,37,26,23,69,56,42,30.48,30.38,30.24,10,10,10,13,6,17,0.00,1,,92
2012-12-31,61,54,47,61,53,39,100,86,71,30.21,30.02,29.94,10,5,1,15,7,20,0.25,8,Rain,101